• Join FlightAware (Why Join?)
  • Login
  • US Flag 
12:16PM EDT


 

Airport Tracker/Info


-or-


 

Live Flight TrackerFlight Track Log ✈ AWE4079 ✈ 21-Mar-2014 ✈ KSDF - KPHL

Flight Track Log - Related Links

Times and Time Zones

All times are in EDT time to prevent confusion due to time zone crossing. See the AWE4079 flight status page for this flight to view local times or setup timezone preferences in your user account.

Time Position Orientation Groundspeed Altitude Reporting Facility
EDT Latitude Longitude Course Direction KTS MPH feet Rate Location/Type
03:47PM 38.0792 -85.6356 120° Southeast 252 290 5,600  Level Indianapolis Center
03:48PM 38.0789 -85.5333 90° East 276 318 8,400 2,100 Climbing Indianapolis Center
03:49PM 38.0667 -85.3211 90° East  Level FlightAware Approximate
03:49PM 38.0750 -85.4239 93° East 305 351 10,000  Level Indianapolis Center
03:50PM 38.0517 -85.2006 103° East  Level FlightAware Approximate
03:50PM 38.0717 -85.2944 92° East 351 404 11,300  Level Indianapolis Center
03:51PM 38.0310 -85.0668 100° East  Level FlightAware Approximate
03:51PM 38.0519 -85.1469 100° East 380 437 13,000  Level Indianapolis Center
03:52PM 38.0344 -85.0069 99° East 394 453 14,500 1,320 Climbing Indianapolis Center
03:53PM 38.0161 -84.8642 99° East 406 467 15,800 1,200 Climbing Indianapolis Center
03:54PM 37.9981 -84.7167 99° East 417 480 17,100 1,140 Climbing Indianapolis Center
03:55PM 37.9792 -84.5664 99° East 427 491 18,200 1,200 Climbing Indianapolis Center
03:56PM 37.9628 -84.3878 97° East 434 499 19,600 1,200 Climbing Indianapolis Center
03:57PM 37.9567 -84.2314 93° East 438 504 20,800 1,200 Climbing Indianapolis Center
03:58PM 37.9486 -84.0714 94° East 447 514 22,100 1,200 Climbing Indianapolis Center
03:59PM 37.9417 -83.9125 93° East 448 516 23,300 1,140 Climbing Indianapolis Center
04:00PM 37.9344 -83.7503 93° East 456 525 24,500 1,140 Climbing Indianapolis Center
04:02PM 37.9275 -83.5892 93° East 456 525 25,700 1,200 Climbing Indianapolis Center
04:03PM 37.9183 -83.4014 93° East 457 526 27,100 1,200 Climbing Indianapolis Center
04:04PM 37.9097 -83.2444 94° East 451 519 28,300 900 Climbing Indianapolis Center
04:05PM 37.9014 -83.0847 94° East 451 519 29,000 300 Climbing Indianapolis Center
04:06PM 37.8928 -82.9214 94° East 458 527 29,000  Level Indianapolis Center
04:07PM 37.8833 -82.7464 94° East 484 557 29,000  Level Indianapolis Center
04:08PM 37.8731 -82.5667 94° East 502 578 29,000  Level Indianapolis Center
04:09PM 37.8611 -82.3503 94° East 518 596 29,000  Level Indianapolis Center
04:10PM 37.8494 -82.1619 94° East 527 606 29,000  Level Indianapolis Center
04:11PM 37.8397 -81.9942 94° East 532 612 29,100  Climbing Indianapolis Center
04:12PM 37.8253 -81.7811 95° East 540 621 29,000 -60 Descending Indianapolis Center
04:13PM 37.8131 -81.5886 95° East 542 624 29,000  Level Indianapolis Center
04:14PM 37.7981 -81.3822 95° East 543 625 29,000  Level Indianapolis Center
04:15PM 37.7853 -81.1956 95° East 543 625 29,000  Level Indianapolis Center
04:16PM 37.7875 -81.0097 89° East 542 624 29,000  Level Indianapolis Center
04:17PM 37.8028 -80.7878 85° East 541 623 29,000  Level Indianapolis Center
04:18PM 37.8156 -80.5869 85° East 542 624 29,000  Level Indianapolis Center
04:19PM 37.8267 -80.4147 85° East 543 625 29,000  Level Indianapolis Center
04:20PM 37.8403 -80.1889 86° East 546 628 29,000  Level Indianapolis Center
04:21PM 37.8522 -80.0017 85° East 547 629 29,000  Level Indianapolis Center
04:22PM 37.8625 -79.8119 86° East 547 629 29,000  Level Indianapolis Center
04:23PM 37.8733 -79.6222 86° East 547 629 29,000  Level Indianapolis Center
04:25PM 37.8908 -79.3600 85° East 550 633 29,000  Level Washington Center
04:25PM 37.9011 -79.1683 86° East 550 633 29,000  Level Washington Center
04:26PM 37.9189 -78.9794 83° East 550 633 29,000  Level Washington Center
04:27PM 37.9431 -78.7911 81° East 550 633 29,000  Level Washington Center
04:28PM 37.9644 -78.6050 82° East 543 625 29,000  Level Washington Center
04:29PM 37.9853 -78.4319 81° East 543 625 29,000  Level Washington Center
04:30PM 38.0064 -78.2431 82° East 538 619 29,000  Level Washington Center
04:31PM 38.0603 -78.0603 69° East 522 601 29,000  Level Washington Center
04:32PM 38.1361 -77.9122 57° Northeast 499 574 29,000  Level Washington Center
04:33PM 38.2100 -77.7614 58° Northeast 494 568 29,000  Level Washington Center
04:34PM 38.2836 -77.6072 59° Northeast 494 568 29,000  Level Washington Center
04:35PM 38.3383 -77.4367 68° East 499 574 29,000  Level Washington Center
04:36PM 38.3847 -77.2606 71° East 518 596 29,000 -600 Level Washington Center
04:37PM 38.4183 -77.0811 77° East 518 596 27,900 -1,920 Descending Washington Center
04:38PM 38.4078 -76.9086 94° East 496 571 25,200 -1,980 Descending Washington Center
04:39PM 38.4778 -76.8011 50° Northeast 429 494 24,000 -660 Descending Washington Center
04:40PM 38.5739 -76.7786 10° North 325 374 24,000  Level Washington Center
04:41PM 38.6722 -76.7483 14° North 325 374 24,000 -480 Level Washington Center
04:42PM 38.7339 -76.6136 60° Northeast 370 426 23,100 -1,440 Descending Washington Center
04:43PM 38.7664 -76.4489 76° East 403 464 21,100 -2,220 Descending Washington Center
04:45PM 38.7967 -76.2975 76° East 429 494 18,600 -2,220 Descending Washington Center
04:45PM 38.8203 -76.1858 75° East 424 488 16,700 -1,860 Descending Washington Center
04:46PM 38.8519 -76.0342 75° East 405 466 15,000 -900 Descending Washington Center
04:47PM 38.8817 -75.9064 73° East 384 442 15,000 -300 Level Washington Center
04:48PM 38.9319 -75.7997 59° Northeast 345 397 14,500 -960 Descending Washington Center
04:49PM 39.0111 -75.7278 35° Northeast 339 390 13,100 -1,440 Descending Washington Center
04:50PM 39.0883 -75.6744 28° Northeast 313 360 11,700 -1,440 Descending Washington Center
04:51PM 39.1656 -75.6667 North 290 334 10,200 -660 Descending Washington Center
04:53PM 39.3000 -75.6333 11° North 272 313 10,000 -420 Descending Philadelphia TRACON
04:54PM 39.3667 -75.5833 30° Northeast 275 316 9,100 -1,020 Descending Philadelphia TRACON
04:55PM 39.4167 -75.5167 46° Northeast 275 316 8,000 -1,260 Descending Philadelphia TRACON
04:56PM 39.4500 -75.4333 63° Northeast 279 321 6,800 -1,200 Descending Philadelphia TRACON
04:57PM 39.5000 -75.3500 52° Northeast 271 312 5,600 -900 Descending Philadelphia TRACON
04:58PM 39.5333 -75.2667 63° Northeast 247 284 5,000 -300 Descending Philadelphia TRACON
04:59PM 39.6000 -75.2333 21° North 263 303 5,000 -360 Level Philadelphia TRACON
05:00PM 39.6500 -75.1833 38° Northeast 180 207 4,300 -900 Descending Philadelphia TRACON
05:01PM 39.6833 -75.1500 38° Northeast 179 206 3,200 -900 Descending Philadelphia TRACON
05:02PM 39.7333 -75.1667 346° North 157 181 2,500 -660 Descending Philadelphia TRACON
05:03PM 39.7833 -75.1833 346° North 159 183 1,900 -600 Descending Philadelphia TRACON
05:04PM 39.8167 -75.2000 339° North 142 163 1,300 -720 Descending Philadelphia TRACON
05:05PM 39.8500 -75.2167 339° North 130 150 600 -780 Descending Philadelphia TRACON